sensor_id;sensor_type;location;lat;lon;timestamp;pressure;altitude;pressure_sealevel;temperature;humidity
27840;BME280;15207;42.182;24.308;2022-12-18T00:03:55;99823.88;;;9.97;100.00
27840;BME280;15207;42.182;24.308;2022-12-18T00:06:21;99823.25;;;10.06;100.00
27840;BME280;15207;42.182;24.308;2022-12-18T00:08:47;99830.56;;;10.17;100.00
27840;BME280;15207;42.182;24.308;2022-12-18T00:11:17;99827.66;;;10.20;100.00
27840;BME280;15207;42.182;24.308;2022-12-18T00:13:43;99826.03;;;10.30;100.00
27840;BME280;15207;42.182;24.308;2022-12-18T00:16:12;99832.34;;;10.42;100.00
27840;BME280;15207;42.182;24.308;2022-12-18T00:18:38;99832.19;;;10.45;100.00
27840;BME280;15207;42.182;24.308;2022-12-18T00:21:06;99840.75;;;10.51;100.00
27840;BME280;15207;42.182;24.308;2022-12-18T00:23:33;99847.91;;;10.63;100.00
27840;BME280;15207;42.182;24.308;2022-12-18T00:26:00;99851.13;;;10.68;100.00
27840;BME280;15207;42.182;24.308;2022-12-18T00:28:26;99853.59;;;10.71;100.00
27840;BME280;15207;42.182;24.308;2022-12-18T00:31:02;99856.28;;;10.71;100.00
27840;BME280;15207;42.182;24.308;2022-12-18T00:33:29;99859.47;;;10.77;100.00
27840;BME280;15207;42.182;24.308;2022-12-18T00:36:21;99854.47;;;10.72;100.00
27840;BME280;15207;42.182;24.308;2022-12-18T00:38:46;99857.53;;;10.66;100.00
27840;BME280;15207;42.182;24.308;2022-12-18T00:41:13;99859.94;;;10.57;100.00
27840;BME280;15207;42.182;24.308;2022-12-18T00:43:39;99864.31;;;10.58;100.00
27840;BME280;15207;42.182;24.308;2022-12-18T00:46:05;99857.66;;;10.51;100.00
27840;BME280;15207;42.182;24.308;2022-12-18T00:48:31;99866.22;;;10.43;100.00
27840;BME280;15207;42.182;24.308;2022-12-18T00:50:56;99868.34;;;10.38;100.00
27840;BME280;15207;42.182;24.308;2022-12-18T00:53:22;99871.78;;;10.40;100.00
27840;BME280;15207;42.182;24.308;2022-12-18T00:55:48;99889.66;;;10.40;100.00
27840;BME280;15207;42.182;24.308;2022-12-18T00:58:14;99892.06;;;10.44;100.00
27840;BME280;15207;42.182;24.308;2022-12-18T01:00:40;99890.81;;;10.36;100.00
27840;BME280;15207;42.182;24.308;2022-12-18T01:03:05;99886.25;;;10.38;100.00
27840;BME280;15207;42.182;24.308;2022-12-18T01:05:31;99886.44;;;10.35;100.00
27840;BME280;15207;42.182;24.308;2022-12-18T01:07:58;99886.97;;;10.27;100.00
27840;BME280;15207;42.182;24.308;2022-12-18T01:10:25;99883.56;;;10.25;100.00
27840;BME280;15207;42.182;24.308;2022-12-18T01:12:50;99886.97;;;10.27;100.00
27840;BME280;15207;42.182;24.308;2022-12-18T01:15:16;99880.75;;;10.26;100.00
27840;BME280;15207;42.182;24.308;2022-12-18T01:17:42;99893.59;;;10.21;100.00
27840;BME280;15207;42.182;24.308;2022-12-18T01:20:08;99897.03;;;10.10;100.00
27840;BME280;15207;42.182;24.308;2022-12-18T01:22:34;99905.66;;;10.01;100.00
27840;BME280;15207;42.182;24.308;2022-12-18T01:25:00;99896.53;;;9.90;100.00
27840;BME280;15207;42.182;24.308;2022-12-18T01:27:26;99891.41;;;10.00;100.00
27840;BME280;15207;42.182;24.308;2022-12-18T01:29:51;99898.25;;;9.91;100.00
27840;BME280;15207;42.182;24.308;2022-12-18T01:32:17;99906.25;;;9.78;100.00
27840;BME280;15207;42.182;24.308;2022-12-18T01:34:42;99901.09;;;9.75;100.00
27840;BME280;15207;42.182;24.308;2022-12-18T01:37:08;99911.59;;;9.78;100.00
27840;BME280;15207;42.182;24.308;2022-12-18T01:39:33;99911.19;;;9.85;100.00
27840;BME280;15207;42.182;24.308;2022-12-18T01:42:00;99900.03;;;9.78;100.00
27840;BME280;15207;42.182;24.308;2022-12-18T01:47:13;99907.50;;;9.73;100.00
27840;BME280;15207;42.182;24.308;2022-12-18T01:49:40;99905.38;;;9.78;100.00
27840;BME280;15207;42.182;24.308;2022-12-18T01:52:07;99904.72;;;9.74;100.00
27840;BME280;15207;42.182;24.308;2022-12-18T01:54:32;99907.22;;;9.77;100.00
27840;BME280;15207;42.182;24.308;2022-12-18T01:56:58;99912.50;;;9.92;100.00
27840;BME280;15207;42.182;24.308;2022-12-18T01:59:26;99916.38;;;10.01;100.00
27840;BME280;15207;42.182;24.308;2022-12-18T02:01:53;99922.47;;;10.03;100.00
27840;BME280;15207;42.182;24.308;2022-12-18T02:04:23;99913.38;;;10.05;100.00
27840;BME280;15207;42.182;24.308;2022-12-18T02:07:07;99909.63;;;10.08;100.00
27840;BME280;15207;42.182;24.308;2022-12-18T02:10:00;99926.91;;;10.17;100.00
27840;BME280;15207;42.182;24.308;2022-12-18T02:18:27;99931.50;;;10.15;100.00
27840;BME280;15207;42.182;24.308;2022-12-18T02:24:24;99928.81;;;10.15;100.00
27840;BME280;15207;42.182;24.308;2022-12-18T02:26:57;99930.13;;;10.22;100.00
27840;BME280;15207;42.182;24.308;2022-12-18T02:29:32;99934.41;;;10.12;100.00
27840;BME280;15207;42.182;24.308;2022-12-18T02:32:00;99937.72;;;10.15;100.00
27840;BME280;15207;42.182;24.308;2022-12-18T02:34:32;99938.56;;;10.16;100.00
27840;BME280;15207;42.182;24.308;2022-12-18T02:37:00;99944.69;;;10.18;100.00
27840;BME280;15207;42.182;24.308;2022-12-18T02:39:29;99942.84;;;10.18;100.00
27840;BME280;15207;42.182;24.308;2022-12-18T02:41:56;99941.91;;;10.19;100.00
27840;BME280;15207;42.182;24.308;2022-12-18T02:44:22;99944.59;;;10.19;100.00
27840;BME280;15207;42.182;24.308;2022-12-18T02:46:52;99940.63;;;10.25;100.00
27840;BME280;15207;42.182;24.308;2022-12-18T02:49:40;99943.53;;;10.35;100.00
27840;BME280;15207;42.182;24.308;2022-12-18T02:52:35;99945.69;;;10.30;100.00
27840;BME280;15207;42.182;24.308;2022-12-18T03:00:41;99945.53;;;10.18;100.00
27840;BME280;15207;42.182;24.308;2022-12-18T03:03:22;99944.25;;;10.24;100.00
27840;BME280;15207;42.182;24.308;2022-12-18T03:06:02;99941.69;;;10.23;100.00
27840;BME280;15207;42.182;24.308;2022-12-18T03:08:32;99949.16;;;10.17;100.00
27840;BME280;15207;42.182;24.308;2022-12-18T03:11:03;99943.69;;;10.06;100.00
27840;BME280;15207;42.182;24.308;2022-12-18T03:13:58;99950.09;;;10.03;100.00
27840;BME280;15207;42.182;24.308;2022-12-18T03:16:26;99944.94;;;10.00;100.00
27840;BME280;15207;42.182;24.308;2022-12-18T03:19:09;99952.88;;;10.02;100.00
27840;BME280;15207;42.182;24.308;2022-12-18T03:21:41;99953.78;;;9.88;100.00
27840;BME280;15207;42.182;24.308;2022-12-18T03:24:09;99956.00;;;9.81;100.00
27840;BME280;15207;42.182;24.308;2022-12-18T03:26:37;99948.69;;;9.70;100.00
27840;BME280;15207;42.182;24.308;2022-12-18T03:29:09;99952.25;;;9.56;100.00
27840;BME280;15207;42.182;24.308;2022-12-18T03:31:37;99964.88;;;9.54;100.00
27840;BME280;15207;42.182;24.308;2022-12-18T03:34:09;99971.38;;;9.50;100.00
27840;BME280;15207;42.182;24.308;2022-12-18T03:36:37;99965.66;;;9.42;100.00
27840;BME280;15207;42.182;24.308;2022-12-18T03:39:03;99968.22;;;9.43;100.00
27840;BME280;15207;42.182;24.308;2022-12-18T03:41:56;99977.09;;;9.44;100.00
27840;BME280;15207;42.182;24.308;2022-12-18T03:55:40;99999.19;;;9.33;100.00
27840;BME280;15207;42.182;24.308;2022-12-18T03:58:07;100004.53;;;9.33;100.00
27840;BME280;15207;42.182;24.308;2022-12-18T04:00:34;100004.13;;;9.39;100.00
27840;BME280;15207;42.182;24.308;2022-12-18T04:03:00;100010.53;;;9.36;100.00
27840;BME280;15207;42.182;24.308;2022-12-18T04:05:27;100017.59;;;9.37;100.00
27840;BME280;15207;42.182;24.308;2022-12-18T04:07:55;100022.94;;;9.37;100.00
27840;BME280;15207;42.182;24.308;2022-12-18T04:10:21;100028.69;;;9.31;100.00
27840;BME280;15207;42.182;24.308;2022-12-18T04:12:47;100032.41;;;9.29;100.00
27840;BME280;15207;42.182;24.308;2022-12-18T04:15:12;100039.66;;;9.26;100.00
27840;BME280;15207;42.182;24.308;2022-12-18T04:17:39;100040.25;;;9.32;100.00
27840;BME280;15207;42.182;24.308;2022-12-18T04:20:08;100046.34;;;9.34;100.00
27840;BME280;15207;42.182;24.308;2022-12-18T04:22:34;100045.09;;;9.25;100.00
27840;BME280;15207;42.182;24.308;2022-12-18T04:25:00;100053.69;;;9.30;100.00
27840;BME280;15207;42.182;24.308;2022-12-18T04:27:26;100056.63;;;9.25;100.00
27840;BME280;15207;42.182;24.308;2022-12-18T04:29:51;100060.28;;;9.24;100.00
27840;BME280;15207;42.182;24.308;2022-12-18T04:32:17;100060.09;;;9.28;100.00
27840;BME280;15207;42.182;24.308;2022-12-18T04:34:42;100065.13;;;9.18;100.00
27840;BME280;15207;42.182;24.308;2022-12-18T04:37:08;100067.88;;;9.16;100.00
27840;BME280;15207;42.182;24.308;2022-12-18T04:39:33;100065.09;;;9.03;100.00
27840;BME280;15207;42.182;24.308;2022-12-18T04:41:59;100082.88;;;9.04;100.00
27840;BME280;15207;42.182;24.308;2022-12-18T04:44:24;100069.22;;;9.09;100.00
27840;BME280;15207;42.182;24.308;2022-12-18T04:46:50;100079.81;;;9.10;100.00
27840;BME280;15207;42.182;24.308;2022-12-18T04:49:15;100085.84;;;9.14;100.00
27840;BME280;15207;42.182;24.308;2022-12-18T04:51:41;100086.31;;;9.06;100.00
27840;BME280;15207;42.182;24.308;2022-12-18T04:54:06;100085.44;;;9.06;100.00
27840;BME280;15207;42.182;24.308;2022-12-18T04:56:32;100091.53;;;8.93;100.00
27840;BME280;15207;42.182;24.308;2022-12-18T04:58:57;100097.84;;;8.92;100.00
27840;BME280;15207;42.182;24.308;2022-12-18T05:01:23;100105.31;;;9.02;100.00
27840;BME280;15207;42.182;24.308;2022-12-18T05:03:48;100109.19;;;8.96;100.00
27840;BME280;15207;42.182;24.308;2022-12-18T05:06:14;100106.88;;;8.90;100.00
27840;BME280;15207;42.182;24.308;2022-12-18T05:08:40;100098.16;;;8.86;100.00
27840;BME280;15207;42.182;24.308;2022-12-18T05:11:06;100097.34;;;8.85;100.00
27840;BME280;15207;42.182;24.308;2022-12-18T05:13:33;100103.97;;;8.78;100.00
27840;BME280;15207;42.182;24.308;2022-12-18T05:15:59;100112.25;;;8.73;100.00
27840;BME280;15207;42.182;24.308;2022-12-18T05:18:25;100113.03;;;8.76;100.00
27840;BME280;15207;42.182;24.308;2022-12-18T05:20:52;100115.97;;;8.71;100.00
27840;BME280;15207;42.182;24.308;2022-12-18T05:23:18;100130.53;;;8.65;100.00
27840;BME280;15207;42.182;24.308;2022-12-18T05:25:52;100130.47;;;8.67;100.00
27840;BME280;15207;42.182;24.308;2022-12-18T05:28:18;100133.81;;;8.70;100.00
27840;BME280;15207;42.182;24.308;2022-12-18T05:30:51;100140.31;;;8.81;100.00
27840;BME280;15207;42.182;24.308;2022-12-18T05:33:18;100140.31;;;8.81;100.00
27840;BME280;15207;42.182;24.308;2022-12-18T05:35:43;100142.69;;;8.71;100.00
27840;BME280;15207;42.182;24.308;2022-12-18T05:38:09;100146.91;;;8.75;100.00
27840;BME280;15207;42.182;24.308;2022-12-18T05:40:35;100148.63;;;8.76;100.00
27840;BME280;15207;42.182;24.308;2022-12-18T05:43:01;100163.78;;;8.76;100.00
27840;BME280;15207;42.182;24.308;2022-12-18T05:45:27;100165.69;;;8.73;100.00
27840;BME280;15207;42.182;24.308;2022-12-18T05:47:52;100175.25;;;8.78;100.00
27840;BME280;15207;42.182;24.308;2022-12-18T05:50:18;100173.34;;;8.80;100.00
27840;BME280;15207;42.182;24.308;2022-12-18T05:52:43;100168.88;;;8.80;100.00
27840;BME280;15207;42.182;24.308;2022-12-18T05:55:09;100182.66;;;8.72;100.00
27840;BME280;15207;42.182;24.308;2022-12-18T05:57:34;100179.72;;;8.77;100.00
27840;BME280;15207;42.182;24.308;2022-12-18T06:00:00;100186.59;;;8.81;100.00
27840;BME280;15207;42.182;24.308;2022-12-18T06:02:25;100191.88;;;8.83;100.00
27840;BME280;15207;42.182;24.308;2022-12-18T06:04:51;100187.03;;;8.90;100.00
27840;BME280;15207;42.182;24.308;2022-12-18T06:07:17;100186.66;;;8.96;100.00
27840;BME280;15207;42.182;24.308;2022-12-18T06:09:42;100196.16;;;9.02;99.47
27840;BME280;15207;42.182;24.308;2022-12-18T06:12:08;100197.66;;;9.06;99.14
27840;BME280;15207;42.182;24.308;2022-12-18T06:14:33;100200.97;;;8.95;98.91
27840;BME280;15207;42.182;24.308;2022-12-18T06:16:59;100205.22;;;8.99;99.42
27840;BME280;15207;42.182;24.308;2022-12-18T06:19:24;100217.59;;;9.00;98.85
27840;BME280;15207;42.182;24.308;2022-12-18T06:21:50;100221.13;;;9.00;98.84
27840;BME280;15207;42.182;24.308;2022-12-18T06:24:16;100220.28;;;9.00;98.58
27840;BME280;15207;42.182;24.308;2022-12-18T06:26:42;100212.84;;;9.05;98.65
27840;BME280;15207;42.182;24.308;2022-12-18T06:29:07;100227.94;;;9.06;97.18
27840;BME280;15207;42.182;24.308;2022-12-18T06:31:33;100233.00;;;9.11;97.47
27840;BME280;15207;42.182;24.308;2022-12-18T06:33:58;100241.13;;;9.09;97.32
27840;BME280;15207;42.182;24.308;2022-12-18T06:36:24;100239.56;;;9.05;97.54
27840;BME280;15207;42.182;24.308;2022-12-18T06:38:49;100246.81;;;9.03;97.30
27840;BME280;15207;42.182;24.308;2022-12-18T06:41:17;100240.78;;;8.99;95.75
27840;BME280;15207;42.182;24.308;2022-12-18T06:43:43;100254.94;;;9.02;96.24
27840;BME280;15207;42.182;24.308;2022-12-18T06:46:10;100260.59;;;8.95;95.77
27840;BME280;15207;42.182;24.308;2022-12-18T06:48:36;100259.91;;;9.08;96.32
27840;BME280;15207;42.182;24.308;2022-12-18T06:51:02;100263.78;;;9.02;96.24
27840;BME280;15207;42.182;24.308;2022-12-18T06:53:27;100258.44;;;9.02;95.52
27840;BME280;15207;42.182;24.308;2022-12-18T06:56:00;100266.81;;;8.96;95.22
27840;BME280;15207;42.182;24.308;2022-12-18T06:58:27;100264.06;;;8.97;94.62
27840;BME280;15207;42.182;24.308;2022-12-18T07:00:52;100263.78;;;9.02;95.65
27840;BME280;15207;42.182;24.308;2022-12-18T07:03:17;100263.72;;;9.04;95.62
27840;BME280;15207;42.182;24.308;2022-12-18T07:05:43;100265.44;;;9.05;94.82
27840;BME280;15207;42.182;24.308;2022-12-18T07:08:08;100260.69;;;9.10;94.86
27840;BME280;15207;42.182;24.308;2022-12-18T07:10:41;100270.00;;;9.19;95.24
27840;BME280;15207;42.182;24.308;2022-12-18T07:13:06;100279.97;;;9.15;94.25
27840;BME280;15207;42.182;24.308;2022-12-18T07:15:32;100284.56;;;9.13;93.87
27840;BME280;15207;42.182;24.308;2022-12-18T07:17:58;100288.78;;;9.17;93.70
27840;BME280;15207;42.182;24.308;2022-12-18T07:20:23;100285.25;;;9.17;93.94
27840;BME280;15207;42.182;24.308;2022-12-18T07:22:49;100283.38;;;9.19;92.94
27840;BME280;15207;42.182;24.308;2022-12-18T07:25:14;100291.47;;;9.17;93.15
27840;BME280;15207;42.182;24.308;2022-12-18T07:27:40;100290.50;;;9.18;93.47
27840;BME280;15207;42.182;24.308;2022-12-18T07:30:06;100301.97;;;9.20;92.03
27840;BME280;15207;42.182;24.308;2022-12-18T07:32:31;100289.97;;;9.28;92.50
27840;BME280;15207;42.182;24.308;2022-12-18T07:34:57;100293.25;;;9.33;92.16
27840;BME280;15207;42.182;24.308;2022-12-18T07:37:22;100299.69;;;9.45;91.49
27840;BME280;15207;42.182;24.308;2022-12-18T07:39:48;100295.69;;;9.52;91.79
27840;BME280;15207;42.182;24.308;2022-12-18T07:42:13;100300.81;;;9.71;91.98
27840;BME280;15207;42.182;24.308;2022-12-18T07:44:58;100301.59;;;9.73;91.10
27840;BME280;15207;42.182;24.308;2022-12-18T07:47:24;100300.47;;;9.77;90.58
27840;BME280;15207;42.182;24.308;2022-12-18T07:49:50;100308.28;;;9.81;90.62
27840;BME280;15207;42.182;24.308;2022-12-18T07:52:16;100306.47;;;9.81;89.89
27840;BME280;15207;42.182;24.308;2022-12-18T07:54:41;100302.00;;;9.82;88.60
27840;BME280;15207;42.182;24.308;2022-12-18T07:57:07;100310.50;;;9.88;89.82
27840;BME280;15207;42.182;24.308;2022-12-18T07:59:34;100313.06;;;9.90;88.95
27840;BME280;15207;42.182;24.308;2022-12-18T08:01:59;100315.75;;;9.90;89.27
27840;BME280;15207;42.182;24.308;2022-12-18T08:04:25;100317.78;;;10.01;88.90
27840;BME280;15207;42.182;24.308;2022-12-18T08:06:51;100327.44;;;10.03;87.19
27840;BME280;15207;42.182;24.308;2022-12-18T08:09:16;100325.34;;;10.09;88.19
27840;BME280;15207;42.182;24.308;2022-12-18T08:11:42;100325.63;;;10.18;88.30
27840;BME280;15207;42.182;24.308;2022-12-18T08:14:08;100330.53;;;10.26;87.57
27840;BME280;15207;42.182;24.308;2022-12-18T08:16:34;100325.47;;;10.36;87.01
27840;BME280;15207;42.182;24.308;2022-12-18T08:18:59;100333.41;;;10.38;86.01
27840;BME280;15207;42.182;24.308;2022-12-18T08:21:28;100329.59;;;10.42;86.16
27840;BME280;15207;42.182;24.308;2022-12-18T08:23:55;100332.88;;;10.47;86.12
27840;BME280;15207;42.182;24.308;2022-12-18T08:26:22;100334.78;;;10.45;85.20
27840;BME280;15207;42.182;24.308;2022-12-18T08:28:49;100335.44;;;10.49;84.39
27840;BME280;15207;42.182;24.308;2022-12-18T08:31:15;100339.97;;;10.63;84.63
27840;BME280;15207;42.182;24.308;2022-12-18T08:33:41;100344.16;;;10.67;85.49
27840;BME280;15207;42.182;24.308;2022-12-18T08:36:08;100349.59;;;10.80;82.72
27840;BME280;15207;42.182;24.308;2022-12-18T08:38:34;100345.50;;;10.74;83.13
27840;BME280;15207;42.182;24.308;2022-12-18T08:41:06;100346.16;;;10.78;82.01
27840;BME280;15207;42.182;24.308;2022-12-18T08:43:31;100344.44;;;10.77;81.23
27840;BME280;15207;42.182;24.308;2022-12-18T08:46:17;100345.00;;;10.82;81.68
27840;BME280;15207;42.182;24.308;2022-12-18T08:48:43;100346.81;;;10.81;80.69
27840;BME280;15207;42.182;24.308;2022-12-18T08:51:09;100344.69;;;10.87;81.58
27840;BME280;15207;42.182;24.308;2022-12-18T08:53:37;100352.16;;;10.96;82.24
27840;BME280;15207;42.182;24.308;2022-12-18T08:56:03;100361.34;;;10.92;82.10
27840;BME280;15207;42.182;24.308;2022-12-18T08:58:29;100359.44;;;10.94;81.97
27840;BME280;15207;42.182;24.308;2022-12-18T09:01:03;100343.25;;;10.95;80.88
27840;BME280;15207;42.182;24.308;2022-12-18T09:03:28;100357.63;;;10.94;79.21
27840;BME280;15207;42.182;24.308;2022-12-18T09:05:54;100354.47;;;11.02;79.24
27840;BME280;15207;42.182;24.308;2022-12-18T09:08:19;100359.19;;;11.11;81.11
27840;BME280;15207;42.182;24.308;2022-12-18T09:10:46;100353.56;;;11.16;78.90
27840;BME280;15207;42.182;24.308;2022-12-18T09:13:12;100361.09;;;11.24;79.40
27840;BME280;15207;42.182;24.308;2022-12-18T09:15:42;100349.78;;;11.33;78.82
27840;BME280;15207;42.182;24.308;2022-12-18T09:18:08;100344.00;;;11.40;79.16
27840;BME280;15207;42.182;24.308;2022-12-18T09:20:35;100349.56;;;11.36;77.94
27840;BME280;15207;42.182;24.308;2022-12-18T09:23:01;100343.84;;;11.56;79.38
27840;BME280;15207;42.182;24.308;2022-12-18T09:25:28;100351.31;;;11.78;79.13
27840;BME280;15207;42.182;24.308;2022-12-18T09:28:04;100345.19;;;11.89;75.86
27840;BME280;15207;42.182;24.308;2022-12-18T09:30:30;100351.97;;;11.95;76.46
27840;BME280;15207;42.182;24.308;2022-12-18T09:32:59;100349.41;;;11.93;77.08
27840;BME280;15207;42.182;24.308;2022-12-18T09:35:24;100353.78;;;11.94;75.61
27840;BME280;15207;42.182;24.308;2022-12-18T09:37:50;100355.81;;;11.77;75.53
27840;BME280;15207;42.182;24.308;2022-12-18T09:40:21;100355.25;;;11.72;76.23
27840;BME280;15207;42.182;24.308;2022-12-18T09:42:54;100358.69;;;11.74;74.47
27840;BME280;15207;42.182;24.308;2022-12-18T09:45:21;100359.34;;;11.65;73.57
27840;BME280;15207;42.182;24.308;2022-12-18T09:47:48;100363.59;;;11.55;72.90
27840;BME280;15207;42.182;24.308;2022-12-18T09:52:48;100363.22;;;11.46;73.75
27840;BME280;15207;42.182;24.308;2022-12-18T09:57:53;100366.41;;;11.38;74.67
27840;BME280;15207;42.182;24.308;2022-12-18T10:00:22;100367.75;;;11.31;74.66
27840;BME280;15207;42.182;24.308;2022-12-18T10:02:49;100362.03;;;11.37;74.40
27840;BME280;15207;42.182;24.308;2022-12-18T10:05:20;100361.06;;;11.38;75.44
27840;BME280;15207;42.182;24.308;2022-12-18T10:10:48;100356.19;;;11.31;74.16
27840;BME280;15207;42.182;24.308;2022-12-18T10:13:39;100364.75;;;11.23;73.48
27840;BME280;15207;42.182;24.308;2022-12-18T10:16:20;100361.56;;;11.31;74.41
27840;BME280;15207;42.182;24.308;2022-12-18T10:18:53;100356.91;;;11.47;76.89
27840;BME280;15207;42.182;24.308;2022-12-18T10:21:26;100366.28;;;11.55;73.90
27840;BME280;15207;42.182;24.308;2022-12-18T10:26:38;100367.94;;;11.43;72.66
27840;BME280;15207;42.182;24.308;2022-12-18T10:29:15;100371.78;;;11.38;74.16
27840;BME280;15207;42.182;24.308;2022-12-18T10:31:41;100364.91;;;11.34;73.84
27840;BME280;15207;42.182;24.308;2022-12-18T10:34:12;100361.06;;;11.38;74.88
27840;BME280;15207;42.182;24.308;2022-12-18T10:36:38;100368.63;;;11.32;74.12
27840;BME280;15207;42.182;24.308;2022-12-18T10:39:17;100368.97;;;11.27;74.95
27840;BME280;15207;42.182;24.308;2022-12-18T10:41:43;100373.13;;;11.31;76.23
27840;BME280;15207;42.182;24.308;2022-12-18T10:44:20;100375.84;;;11.17;76.59
27840;BME280;15207;42.182;24.308;2022-12-18T10:46:47;100371.44;;;11.16;76.37
27840;BME280;15207;42.182;24.308;2022-12-18T10:49:26;100375.97;;;11.15;76.80
27840;BME280;15207;42.182;24.308;2022-12-18T10:55:13;100379.53;;;11.01;75.04
27840;BME280;15207;42.182;24.308;2022-12-18T10:57:41;100372.72;;;11.10;76.17
27840;BME280;15207;42.182;24.308;2022-12-18T11:00:29;100372.50;;;11.13;74.41
27840;BME280;15207;42.182;24.308;2022-12-18T11:02:56;100382.09;;;11.03;73.42
27840;BME280;15207;42.182;24.308;2022-12-18T11:07:49;100377.31;;;11.08;73.98
27840;BME280;15207;42.182;24.308;2022-12-18T11:10:20;100370.22;;;11.21;75.20
27840;BME280;15207;42.182;24.308;2022-12-18T11:12:47;100375.97;;;11.15;72.17
27840;BME280;15207;42.182;24.308;2022-12-18T11:15:30;100373.38;;;11.14;72.70
27840;BME280;15207;42.182;24.308;2022-12-18T11:17:56;100371.09;;;11.07;73.41
27840;BME280;15207;42.182;24.308;2022-12-18T11:20:32;100366.31;;;11.13;75.72
27840;BME280;15207;42.182;24.308;2022-12-18T11:23:20;100370.88;;;11.10;75.10
27840;BME280;15207;42.182;24.308;2022-12-18T11:25:55;100375.34;;;10.97;75.49
27840;BME280;15207;42.182;24.308;2022-12-18T11:28:49;100373.03;;;10.91;78.13
27840;BME280;15207;42.182;24.308;2022-12-18T11:31:27;100381.16;;;10.89;80.00
27840;BME280;15207;42.182;24.308;2022-12-18T11:36:36;100378.19;;;10.94;81.51
27840;BME280;15207;42.182;24.308;2022-12-18T11:39:15;100378.78;;;10.99;82.27
27840;BME280;15207;42.182;24.308;2022-12-18T11:41:48;100389.00;;;10.92;81.54
27840;BME280;15207;42.182;24.308;2022-12-18T11:44:50;100389.78;;;10.94;82.21
27840;BME280;15207;42.182;24.308;2022-12-18T11:47:37;100386.25;;;10.94;81.37
27840;BME280;15207;42.182;24.308;2022-12-18T11:50:14;100389.97;;;10.91;81.54
27840;BME280;15207;42.182;24.308;2022-12-18T11:52:41;100386.25;;;10.94;80.42
27840;BME280;15207;42.182;24.308;2022-12-18T11:55:24;100378.69;;;10.86;78.01
27840;BME280;15207;42.182;24.308;2022-12-18T11:58:07;100388.34;;;10.89;78.35
27840;BME280;15207;42.182;24.308;2022-12-18T12:00:46;100392.75;;;10.75;76.70
27840;BME280;15207;42.182;24.308;2022-12-18T12:16:32;100401.09;;;10.85;78.46
27840;BME280;15207;42.182;24.308;2022-12-18T12:24:33;100401.56;;;10.63;77.79
27840;BME280;15207;42.182;24.308;2022-12-18T12:32:48;100406.56;;;10.38;76.55
27840;BME280;15207;42.182;24.308;2022-12-18T12:38:13;100414.44;;;10.41;77.49
27840;BME280;15207;42.182;24.308;2022-12-18T12:40:47;100419.03;;;10.39;77.04
27840;BME280;15207;42.182;24.308;2022-12-18T12:43:20;100430.16;;;10.31;73.98
27840;BME280;15207;42.182;24.308;2022-12-18T12:45:54;100441.59;;;10.35;73.67
27840;BME280;15207;42.182;24.308;2022-12-18T12:51:01;100446.63;;;10.25;73.28
27840;BME280;15207;42.182;24.308;2022-12-18T12:53:34;100444.91;;;10.24;74.25
27840;BME280;15207;42.182;24.308;2022-12-18T12:56:01;100449.13;;;10.28;75.81
27840;BME280;15207;42.182;24.308;2022-12-18T13:07:00;100465.34;;;10.25;70.90
27840;BME280;15207;42.182;24.308;2022-12-18T13:09:31;100477.53;;;10.31;71.02
27840;BME280;15207;42.182;24.308;2022-12-18T13:12:08;100468.13;;;10.24;70.89
27840;BME280;15207;42.182;24.308;2022-12-18T13:15:12;100470.50;;;10.14;69.68
27840;BME280;15207;42.182;24.308;2022-12-18T13:17:39;100474.28;;;10.10;69.37
27840;BME280;15207;42.182;24.308;2022-12-18T13:20:08;100474.38;;;10.08;68.63
27840;BME280;15207;42.182;24.308;2022-12-18T13:22:42;100478.69;;;10.11;69.27
27840;BME280;15207;42.182;24.308;2022-12-18T13:28:03;100485.28;;;10.05;68.05
27840;BME280;15207;42.182;24.308;2022-12-18T13:36:19;100493.75;;;9.97;67.83
27840;BME280;15207;42.182;24.308;2022-12-18T13:41:40;100503.44;;;9.84;66.62
27840;BME280;15207;42.182;24.308;2022-12-18T13:44:13;100511.81;;;9.77;66.36
27840;BME280;15207;42.182;24.308;2022-12-18T13:46:49;100512.25;;;9.70;67.79
27840;BME280;15207;42.182;24.308;2022-12-18T13:49:23;100514.72;;;9.73;67.81
27840;BME280;15207;42.182;24.308;2022-12-18T13:51:51;100521.03;;;9.72;67.63
27840;BME280;15207;42.182;24.308;2022-12-18T13:54:21;100528.38;;;9.68;67.98
27840;BME280;15207;42.182;24.308;2022-12-18T13:56:49;100524.06;;;9.65;67.84
27840;BME280;15207;42.182;24.308;2022-12-18T13:59:26;100528.97;;;9.73;68.84
27840;BME280;15207;42.182;24.308;2022-12-18T14:01:55;100534.34;;;9.73;69.51
27840;BME280;15207;42.182;24.308;2022-12-18T14:06:53;100525.19;;;9.77;71.95
27840;BME280;15207;42.182;24.308;2022-12-18T14:09:24;100528.72;;;9.78;73.14
27840;BME280;15207;42.182;24.308;2022-12-18T14:11:51;100527.94;;;9.76;73.91
27840;BME280;15207;42.182;24.308;2022-12-18T14:14:18;100531.16;;;9.83;75.19
27840;BME280;15207;42.182;24.308;2022-12-18T14:16:45;100529.16;;;9.86;74.68
27840;BME280;15207;42.182;24.308;2022-12-18T14:19:16;100537.69;;;9.77;74.52
27840;BME280;15207;42.182;24.308;2022-12-18T14:21:48;100542.19;;;9.92;75.31
27840;BME280;15207;42.182;24.308;2022-12-18T14:24:20;100537.09;;;9.88;74.14
27840;BME280;15207;42.182;24.308;2022-12-18T14:26:47;100554.34;;;9.82;75.04
27840;BME280;15207;42.182;24.308;2022-12-18T14:29:27;100558.59;;;9.86;73.16
27840;BME280;15207;42.182;24.308;2022-12-18T14:32:09;100562.81;;;9.90;73.54
27840;BME280;15207;42.182;24.308;2022-12-18T14:55:21;100563.91;;;9.70;73.39
27840;BME280;15207;42.182;24.308;2022-12-18T15:09:44;100584.47;;;9.36;70.92